Time;durP1;ratioP1;P1;durP2;ratioP2;P2;SDS_P1;SDS_P2;PMS_P1;PMS_P2;Temp;Humidity;BMP_temperature;BMP_pressure;BME280_temperature;BME280_humidity;BME280_pressure;Samples;Min_cycle;Max_cycle;Signal;HPM_P1;HPM_P2
2022/06/08 00:01:40;;;;;;;2.83;1.67;;;13.80;99.90;;;;;;4990704;28;20476;-74
2022/06/08 00:04:09;;;;;;;4.00;1.57;;;13.60;99.90;;;;;;4990810;28;20511;-75
2022/06/08 00:06:35;;;;;;;2.93;1.97;;;13.50;99.90;;;;;;4990577;28;20417;-76
2022/06/08 00:09:01;;;;;;;2.10;2.00;;;13.50;99.90;;;;;;5005588;28;20791;-75
2022/06/08 00:11:26;;;;;;;2.73;2.07;;;13.50;99.90;;;;;;4990579;28;20189;-76
2022/06/08 00:13:52;;;;;;;2.40;1.70;;;13.50;99.90;;;;;;4990473;28;20825;-76
2022/06/08 00:16:18;;;;;;;4.23;1.50;;;13.40;99.90;;;;;;4989051;28;20188;-75
2022/06/08 00:18:44;;;;;;;5.83;2.10;;;13.50;99.90;;;;;;4991039;28;20213;-75
2022/06/08 00:21:11;;;;;;;6.03;1.87;;;13.60;99.90;;;;;;4990397;28;20475;-75
2022/06/08 00:23:38;;;;;;;1.60;1.50;;;13.80;99.90;;;;;;4988400;28;20417;-75
2022/06/08 00:26:04;;;;;;;3.27;1.67;;;13.80;99.90;;;;;;4989800;28;20778;-75
2022/06/08 00:28:31;;;;;;;4.03;1.47;;;13.80;99.90;;;;;;4988191;28;20457;-75
2022/06/08 00:30:57;;;;;;;7.60;1.80;;;13.80;99.90;;;;;;4989171;28;20976;-76
2022/06/08 00:33:23;;;;;;;5.93;2.10;;;13.80;99.90;;;;;;4989279;28;20790;-75
2022/06/08 00:35:48;;;;;;;7.17;1.63;;;13.70;99.90;;;;;;4989395;28;20467;-75
2022/06/08 00:38:14;;;;;;;2.40;2.20;;;13.70;99.90;;;;;;4989453;28;20189;-75
2022/06/08 00:40:50;;;;;;;3.93;1.73;;;13.60;99.90;;;;;;4989244;28;20215;-75
2022/06/08 00:43:16;;;;;;;6.83;1.80;;;13.50;99.90;;;;;;4989384;28;20196;-75
2022/06/08 00:45:42;;;;;;;3.40;2.17;;;13.50;99.90;;;;;;4989499;28;20421;-75
2022/06/08 00:48:08;;;;;;;4.80;2.07;;;13.50;99.90;;;;;;4989289;28;20516;-75
2022/06/08 00:50:53;;;;;;;1.97;1.77;;;13.40;99.90;;;;;;4989040;28;20558;-75
2022/06/08 00:53:29;;;;;;;8.27;2.17;;;13.40;99.90;;;;;;4989314;28;20505;-75
2022/06/08 00:55:56;;;;;;;3.83;2.00;;;13.30;99.90;;;;;;4989230;28;20420;-76
2022/06/08 00:58:26;;;;;;;8.40;2.50;;;13.20;99.90;;;;;;5004119;28;20424;-75
2022/06/08 01:00:53;;;;;;;2.10;1.90;;;13.30;99.90;;;;;;4989328;28;20433;-75
2022/06/08 01:03:19;;;;;;;3.93;1.90;;;13.20;99.90;;;;;;4989349;28;20483;-75
2022/06/08 01:06:29;;;;;;;8.57;2.10;;;13.10;99.90;;;;;;4989487;28;20432;-75
2022/06/08 01:08:54;;;;;;;5.33;1.90;;;13.20;99.90;;;;;;4989175;28;20432;-74
2022/06/08 01:11:43;;;;;;;4.37;1.27;;;13.40;99.90;;;;;;4987554;28;20472;-75
2022/06/08 01:14:12;;;;;;;3.97;1.47;;;13.80;99.90;;;;;;4989129;28;20196;-74
2022/06/08 01:16:41;;;;;;;3.37;1.70;;;14.00;99.90;;;;;;4988994;28;20532;-74
2022/06/08 01:19:10;;;;;;;4.50;1.87;;;14.10;99.90;;;;;;4989131;28;20940;-74
2022/06/08 01:21:36;;;;;;;3.43;1.23;;;14.20;99.90;;;;;;4989014;28;20563;-72
2022/06/08 01:24:05;;;;;;;3.50;1.60;;;14.20;99.90;;;;;;4988984;28;20509;-72
2022/06/08 01:27:21;;;;;;;3.73;1.37;;;14.20;99.90;;;;;;4989002;28;20289;-72
2022/06/08 01:30:11;;;;;;;2.70;1.50;;;14.20;99.90;;;;;;4963517;28;20534;-72
2022/06/08 01:33:05;;;;;;;6.97;1.57;;;14.30;99.90;;;;;;4988965;28;20467;-73
2022/06/08 01:36:12;;;;;;;4.30;1.40;;;14.40;99.90;;;;;;4981029;28;21005;-73
2022/06/08 01:39:03;;;;;;;2.53;1.20;;;14.40;99.90;;;;;;4989181;28;20423;-72
2022/06/08 01:41:56;;;;;;;5.70;1.50;;;14.40;99.90;;;;;;4987434;28;20429;-72
2022/06/08 01:45:28;;;;;;;2.87;1.47;;;14.40;99.90;;;;;;4992858;28;20788;-72
2022/06/08 01:47:44;;;;;;;7.77;1.40;;;14.50;99.90;;;;;;4992689;28;20918;-72
2022/06/08 01:50:23;;;;;;;2.80;1.27;;;14.40;99.90;;;;;;4992736;28;20472;-73
2022/06/08 01:53:15;;;;;;;1.90;1.50;;;14.50;99.90;;;;;;4993068;28;21039;-75
2022/06/08 01:56:21;;;;;;;11.07;1.50;;;14.50;99.90;;;;;;4983313;28;20432;-75
2022/06/08 01:59:24;;;;;;;3.87;1.80;;;14.40;99.90;;;;;;4984570;28;20450;-74
2022/06/08 02:02:14;;;;;;;6.80;1.73;;;14.50;99.90;;;;;;4992667;28;20450;-75
2022/06/08 02:04:43;;;;;;;3.03;1.50;;;14.50;99.90;;;;;;4992282;28;20421;-76
2022/06/08 02:07:31;;;;;;;3.03;1.30;;;14.50;99.90;;;;;;4992760;28;20556;-75
2022/06/08 02:10:24;;;;;;;3.63;1.50;;;14.50;99.90;;;;;;4992300;28;20995;-75
2022/06/08 02:12:58;;;;;;;3.17;1.40;;;14.50;99.90;;;;;;5008847;28;20455;-75
2022/06/08 02:15:38;;;;;;;1.30;1.20;;;14.40;99.90;;;;;;4992452;28;20445;-75
2022/06/08 02:18:12;;;;;;;3.73;1.13;;;14.40;99.90;;;;;;4992134;28;20420;-76
2022/06/08 02:21:08;;;;;;;2.40;1.37;;;14.40;99.90;;;;;;5007039;28;20428;-75
2022/06/08 02:23:48;;;;;;;7.10;1.40;;;14.50;99.90;;;;;;4990689;28;20455;-76
2022/06/08 02:26:30;;;;;;;3.80;1.33;;;14.40;99.90;;;;;;4992214;28;20428;-76
2022/06/08 02:29:10;;;;;;;3.17;1.43;;;14.40;99.90;;;;;;4992583;28;20491;-75
2022/06/08 02:35:01;;;;;;;2.00;1.60;;;14.30;99.90;;;;;;4990017;28;20476;-76
2022/06/08 02:37:33;;;;;;;5.07;1.50;;;14.20;99.90;;;;;;4991953;28;20467;-76
2022/06/08 02:40:12;;;;;;;4.60;1.57;;;14.20;99.90;;;;;;4992011;28;20409;-75
2022/06/08 02:42:45;;;;;;;4.23;1.77;;;14.20;99.90;;;;;;4991766;28;20454;-75
2022/06/08 02:45:19;;;;;;;4.07;1.70;;;14.10;99.90;;;;;;4990119;28;20463;-75
2022/06/08 02:47:48;;;;;;;8.80;1.47;;;14.10;99.90;;;;;;4990026;28;20448;-75
2022/06/08 02:50:19;;;;;;;11.83;1.60;;;14.00;99.90;;;;;;4991320;28;20965;-75
2022/06/08 02:52:48;;;;;;;2.30;1.27;;;14.00;99.90;;;;;;4991076;28;20468;-74
2022/06/08 02:55:38;;;;;;;2.40;1.30;;;14.00;99.90;;;;;;4991495;28;20892;-75
2022/06/08 02:58:15;;;;;;;7.90;1.40;;;13.90;99.90;;;;;;4990895;28;20434;-74
2022/06/08 03:00:55;;;;;;;2.13;1.33;;;13.90;99.90;;;;;;4991589;28;20411;-76
2022/06/08 03:03:26;;;;;;;4.93;1.40;;;13.90;99.90;;;;;;4991955;28;20452;-74
2022/06/08 03:06:00;;;;;;;6.70;2.10;;;13.90;99.90;;;;;;4990718;28;20436;-74
2022/06/08 03:08:31;;;;;;;3.20;1.50;;;13.90;99.90;;;;;;4991768;28;20439;-74
2022/06/08 03:11:01;;;;;;;4.17;1.37;;;13.80;99.90;;;;;;4991573;28;20456;-74
2022/06/08 03:13:31;;;;;;;8.30;1.80;;;13.80;99.90;;;;;;4989933;28;20859;-74
2022/06/08 03:16:00;;;;;;;4.50;1.57;;;13.80;99.90;;;;;;4991689;28;20500;-74
2022/06/08 03:18:26;;;;;;;2.13;1.10;;;13.80;99.90;;;;;;4991332;28;20793;-74
2022/06/08 03:20:53;;;;;;;8.00;1.73;;;13.70;99.90;;;;;;5006152;28;20440;-73
2022/06/08 03:23:19;;;;;;;1.73;1.00;;;13.70;99.90;;;;;;4991010;28;20982;-74
2022/06/08 03:25:46;;;;;;;5.93;1.90;;;13.70;99.90;;;;;;4989713;28;20433;-74
2022/06/08 03:28:14;;;;;;;8.23;1.50;;;13.70;99.90;;;;;;4990960;28;20420;-74
2022/06/08 03:30:44;;;;;;;5.10;1.83;;;13.60;99.90;;;;;;4989517;28;20475;-74
2022/06/08 03:33:10;;;;;;;3.20;1.27;;;13.50;99.90;;;;;;4989305;28;20433;-74
2022/06/08 03:35:37;;;;;;;3.93;1.47;;;13.30;99.90;;;;;;4989384;28;20849;-74
2022/06/08 03:38:04;;;;;;;6.10;2.07;;;13.20;99.90;;;;;;4990639;28;20421;-74
2022/06/08 03:40:30;;;;;;;5.90;1.30;;;13.20;99.90;;;;;;4990768;28;20427;-74
2022/06/08 03:42:56;;;;;;;3.83;1.60;;;13.00;99.90;;;;;;4990444;28;20473;-73
2022/06/08 03:45:23;;;;;;;5.10;1.40;;;13.10;99.90;;;;;;4990431;28;20479;-75
2022/06/08 03:47:51;;;;;;;3.63;1.47;;;13.10;99.90;;;;;;4988926;28;20891;-76
2022/06/08 03:50:25;;;;;;;5.47;1.90;;;13.10;99.90;;;;;;4988904;28;20610;-75
2022/06/08 03:52:56;;;;;;;4.07;1.27;;;13.20;99.90;;;;;;4990020;28;20956;-76
2022/06/08 03:55:23;;;;;;;5.47;1.30;;;13.30;99.90;;;;;;4990197;28;20415;-75
2022/06/08 03:57:50;;;;;;;5.37;1.73;;;13.40;99.90;;;;;;4990034;28;20424;-75
2022/06/08 04:00:17;;;;;;;5.37;1.60;;;13.50;99.90;;;;;;4990089;28;20897;-75
2022/06/08 04:02:45;;;;;;;12.03;1.60;;;13.30;99.90;;;;;;5004756;28;20527;-75
2022/06/08 04:05:12;;;;;;;3.70;1.37;;;13.40;99.90;;;;;;4989485;28;20459;-75
2022/06/08 04:07:38;;;;;;;4.93;1.33;;;13.50;99.90;;;;;;4988716;28;20431;-75
2022/06/08 04:10:04;;;;;;;2.63;1.10;;;13.70;99.90;;;;;;4987758;28;20534;-75
2022/06/08 04:12:31;;;;;;;3.27;1.30;;;13.80;99.90;;;;;;4988297;28;20208;-75
2022/06/08 04:14:56;;;;;;;3.50;1.60;;;13.90;99.90;;;;;;4986878;28;20483;-75
2022/06/08 04:17:22;;;;;;;1.93;1.00;;;14.00;99.90;;;;;;4986728;28;20502;-75
2022/06/08 04:19:50;;;;;;;6.50;2.27;;;14.10;99.90;;;;;;4988124;28;20193;-75
2022/06/08 04:22:19;;;;;;;5.17;1.30;;;14.10;99.90;;;;;;4988154;28;20281;-75
2022/06/08 04:24:45;;;;;;;3.50;1.90;;;14.00;99.90;;;;;;4986758;28;20432;-75
2022/06/08 04:27:11;;;;;;;3.30;1.40;;;13.90;99.90;;;;;;4988307;28;20475;-75
2022/06/08 04:29:38;;;;;;;6.60;1.77;;;14.10;99.90;;;;;;4986457;28;20476;-75
2022/06/08 04:32:10;;;;;;;2.33;1.47;;;14.20;99.90;;;;;;4988149;28;20437;-75
2022/06/08 04:34:41;;;;;;;1.93;1.13;;;14.10;99.90;;;;;;4988405;28;20500;-75
2022/06/08 04:37:07;;;;;;;3.03;1.13;;;14.20;99.90;;;;;;4989793;28;20977;-75
2022/06/08 04:39:32;;;;;;;3.80;1.40;;;14.30;99.90;;;;;;4986432;28;20437;-75
2022/06/08 04:41:59;;;;;;;7.67;1.30;;;14.40;99.90;;;;;;4986561;28;20503;-75
2022/06/08 04:44:25;;;;;;;3.53;1.40;;;14.30;99.90;;;;;;4987940;28;20682;-75
2022/06/08 04:46:50;;;;;;;3.23;1.40;;;14.40;99.90;;;;;;4986375;28;20428;-75
2022/06/08 04:49:16;;;;;;;5.73;2.87;;;14.40;99.90;;;;;;5002539;28;20441;-75
2022/06/08 04:51:42;;;;;;;3.83;1.90;;;14.30;99.90;;;;;;4986501;28;20201;-75
2022/06/08 04:54:08;;;;;;;3.93;1.67;;;14.30;99.90;;;;;;4988184;28;20421;-75
2022/06/08 04:56:33;;;;;;;7.43;1.67;;;14.30;99.90;;;;;;4987019;28;20236;-75
2022/06/08 04:58:59;;;;;;;3.10;1.23;;;14.30;99.90;;;;;;4988463;28;20192;-75
2022/06/08 05:01:25;;;;;;;3.20;1.40;;;14.40;99.90;;;;;;5003185;28;20194;-75
2022/06/08 05:03:51;;;;;;;5.40;1.70;;;14.30;99.90;;;;;;4987148;28;20197;-75
2022/06/08 05:06:16;;;;;;;4.97;2.00;;;14.30;99.90;;;;;;4988612;28;20881;-75
2022/06/08 05:08:42;;;;;;;2.47;1.50;;;14.30;99.90;;;;;;4988516;28;20438;-75
2022/06/08 05:11:08;;;;;;;3.77;1.30;;;14.30;99.90;;;;;;4986972;28;20216;-75
2022/06/08 05:13:36;;;;;;;4.07;1.40;;;14.30;99.90;;;;;;4986720;28;20235;-75
2022/06/08 05:16:02;;;;;;;3.10;1.30;;;14.20;99.90;;;;;;4988087;28;20313;-75
2022/06/08 05:18:28;;;;;;;4.80;1.53;;;14.20;99.90;;;;;;4991175;28;20504;-75
2022/06/08 05:20:54;;;;;;;2.70;1.50;;;14.20;99.90;;;;;;4990653;28;20528;-74
2022/06/08 05:23:23;;;;;;;4.70;1.93;;;14.30;99.90;;;;;;4991922;28;20205;-75
2022/06/08 05:25:49;;;;;;;4.87;1.53;;;14.40;99.90;;;;;;5006418;28;20425;-75
2022/06/08 05:28:16;;;;;;;5.03;1.57;;;14.50;99.90;;;;;;4973827;28;20474;-75
2022/06/08 05:30:43;;;;;;;5.33;1.50;;;14.60;99.90;;;;;;4991504;28;20209;-75
2022/06/08 05:33:10;;;;;;;5.73;1.40;;;14.70;99.90;;;;;;4991388;28;20452;-75
2022/06/08 05:35:37;;;;;;;3.00;1.17;;;14.80;99.90;;;;;;4991494;28;20432;-75
2022/06/08 05:38:04;;;;;;;2.20;1.00;;;14.90;99.90;;;;;;5006110;28;20416;-75
2022/06/08 05:40:33;;;;;;;1.87;1.20;;;15.10;99.90;;;;;;4991306;28;20818;-75
2022/06/08 05:43:00;;;;;;;7.67;1.50;;;15.50;99.90;;;;;;4991324;28;20443;-75
2022/06/08 05:45:28;;;;;;;13.33;1.43;;;15.80;99.90;;;;;;5006074;28;20447;-75
2022/06/08 05:47:54;;;;;;;3.80;1.70;;;16.20;99.90;;;;;;4991414;28;20444;-75
2022/06/08 05:50:20;;;;;;;10.67;1.87;;;16.40;99.90;;;;;;4990889;28;20536;-75
2022/06/08 05:52:48;;;;;;;4.47;1.43;;;16.70;99.90;;;;;;4991339;28;20469;-75
2022/06/08 05:55:15;;;;;;;6.50;1.97;;;16.80;99.90;;;;;;4991173;28;20429;-75
2022/06/08 05:57:41;;;;;;;5.27;1.03;;;16.90;99.90;;;;;;4991042;28;20454;-75
2022/06/08 06:00:11;;;;;;;2.60;1.03;;;16.70;99.90;;;;;;4989410;28;20437;-75
2022/06/08 06:02:36;;;;;;;3.10;1.20;;;16.70;99.90;;;;;;4990716;28;20443;-75
2022/06/08 06:05:03;;;;;;;2.73;1.23;;;16.70;99.90;;;;;;4989341;28;20989;-75
2022/06/08 06:07:28;;;;;;;4.90;1.20;;;16.80;99.90;;;;;;4989301;28;20651;-75
2022/06/08 06:09:54;;;;;;;5.40;1.60;;;16.80;99.90;;;;;;5005276;28;20509;-75
2022/06/08 06:12:20;;;;;;;4.87;1.57;;;16.80;99.90;;;;;;4990848;28;20203;-75
2022/06/08 06:14:46;;;;;;;2.57;1.20;;;16.70;99.90;;;;;;4989086;28;20248;-75
2022/06/08 06:17:12;;;;;;;4.00;1.53;;;16.70;99.90;;;;;;4990478;28;20266;-75
2022/06/08 06:19:38;;;;;;;4.60;1.07;;;16.60;99.90;;;;;;5005124;28;20873;-75
2022/06/08 06:22:04;;;;;;;4.13;1.33;;;16.60;99.90;;;;;;5005335;28;20449;-75
2022/06/08 06:24:31;;;;;;;10.33;1.27;;;16.70;99.90;;;;;;4990709;28;20822;-75
2022/06/08 06:26:57;;;;;;;1.93;1.13;;;16.70;99.90;;;;;;4990905;28;20455;-75
2022/06/08 06:29:23;;;;;;;2.83;1.20;;;16.60;99.90;;;;;;4990393;28;20452;-75
2022/06/08 06:31:56;;;;;;;2.90;1.23;;;16.70;99.90;;;;;;4973528;28;20488;-75
2022/06/08 06:34:25;;;;;;;9.47;1.87;;;16.80;99.90;;;;;;4989609;28;20487;-75
2022/06/08 06:36:54;;;;;;;3.67;1.20;;;17.00;99.90;;;;;;4991084;28;20435;-75
2022/06/08 06:39:21;;;;;;;2.40;1.10;;;16.90;99.90;;;;;;4991136;28;20487;-75
2022/06/08 06:41:47;;;;;;;3.33;1.40;;;17.10;99.90;;;;;;4990899;28;21137;-75
2022/06/08 06:44:14;;;;;;;3.73;1.43;;;17.10;99.90;;;;;;4989553;28;20988;-75
2022/06/08 06:46:40;;;;;;;1.70;1.20;;;17.10;99.90;;;;;;4990785;28;20423;-75
2022/06/08 06:49:06;;;;;;;12.47;2.10;;;17.20;99.90;;;;;;4991025;28;20994;-75
2022/06/08 06:51:34;;;;;;;8.87;2.30;;;17.20;99.90;;;;;;4989306;28;20225;-75
2022/06/08 06:54:00;;;;;;;3.10;1.80;;;17.10;99.90;;;;;;4990903;28;20545;-75
2022/06/08 06:56:26;;;;;;;7.40;2.50;;;17.10;99.90;;;;;;4989343;28;20431;-74
2022/06/08 06:58:53;;;;;;;5.90;2.17;;;17.10;99.90;;;;;;4990607;28;20438;-75
2022/06/08 07:01:19;;;;;;;5.10;2.70;;;17.20;99.90;;;;;;5005334;28;20427;-75
2022/06/08 07:03:45;;;;;;;6.37;2.40;;;17.10;99.90;;;;;;4990703;28;20424;-75
2022/06/08 07:06:11;;;;;;;7.33;2.30;;;17.20;99.90;;;;;;4991294;28;20458;-75
2022/06/08 07:08:37;;;;;;;6.83;2.90;;;17.20;99.90;;;;;;4991213;28;20468;-76
2022/06/08 07:13:49;;;;;;;2.30;1.70;;;17.30;99.90;;;;;;4990593;28;20451;-75
2022/06/08 07:16:15;;;;;;;5.33;1.80;;;17.40;99.90;;;;;;4990335;28;20920;-76
2022/06/08 07:18:41;;;;;;;8.73;2.33;;;17.50;99.90;;;;;;4990407;28;20498;-76
2022/06/08 07:21:07;;;;;;;5.37;1.90;;;17.60;99.90;;;;;;4988830;28;20436;-76
2022/06/08 07:23:32;;;;;;;4.40;2.00;;;17.60;99.90;;;;;;4990302;28;20697;-77
2022/06/08 07:25:58;;;;;;;3.87;1.73;;;17.60;99.90;;;;;;4972397;28;20729;-75
2022/06/08 07:28:24;;;;;;;3.60;1.90;;;17.60;99.90;;;;;;4990345;28;20220;-75
2022/06/08 07:30:50;;;;;;;10.23;1.70;;;17.60;99.90;;;;;;5004882;28;20217;-76
2022/06/08 07:33:15;;;;;;;4.80;1.80;;;17.70;99.90;;;;;;4988971;28;20202;-75
2022/06/08 07:35:41;;;;;;;3.80;1.87;;;17.80;99.90;;;;;;4990043;28;20920;-76
2022/06/08 07:38:08;;;;;;;3.93;2.00;;;17.80;99.90;;;;;;4988412;28;20191;-75
2022/06/08 07:40:34;;;;;;;3.87;1.50;;;17.90;99.90;;;;;;4987690;28;20293;-75
2022/06/08 07:42:59;;;;;;;6.70;1.87;;;18.00;99.90;;;;;;4988436;28;20540;-76
2022/06/08 07:45:25;;;;;;;1.40;0.97;;;18.00;99.90;;;;;;4989794;28;20427;-75
2022/06/08 07:50:34;;;;;;;5.43;1.60;;;18.00;99.90;;;;;;4988403;28;20226;-75
2022/06/08 07:53:00;;;;;;;3.73;1.30;;;18.10;99.90;;;;;;4989098;28;20944;-76
2022/06/08 07:55:26;;;;;;;4.97;1.27;;;18.00;99.90;;;;;;4989429;28;20182;-75
2022/06/08 07:57:53;;;;;;;3.70;1.20;;;18.10;99.90;;;;;;4989255;28;20836;-76
2022/06/08 08:00:19;;;;;;;5.73;1.60;;;18.00;99.90;;;;;;4989361;28;20555;-76
2022/06/08 08:02:45;;;;;;;5.77;1.40;;;18.30;99.90;;;;;;4989240;28;20442;-75
2022/06/08 08:05:13;;;;;;;4.70;1.40;;;18.50;99.90;;;;;;4989200;28;20478;-76
2022/06/08 08:07:40;;;;;;;4.10;1.23;;;18.30;99.90;;;;;;4987949;28;20193;-76
2022/06/08 08:10:09;;;;;;;3.90;1.40;;;18.10;99.90;;;;;;4987603;28;20543;-76
2022/06/08 08:12:36;;;;;;;6.40;2.00;;;18.20;99.90;;;;;;4989182;28;20447;-76
2022/06/08 08:15:03;;;;;;;6.70;1.60;;;18.30;99.90;;;;;;4987874;28;20453;-76
2022/06/08 08:17:28;;;;;;;3.70;1.37;;;18.60;99.90;;;;;;4989277;28;20866;-75
2022/06/08 08:19:54;;;;;;;12.20;1.37;;;18.70;99.90;;;;;;4988786;28;20428;-76
2022/06/08 08:22:21;;;;;;;9.20;2.20;;;18.80;99.90;;;;;;4987581;28;20632;-76
2022/06/08 08:24:47;;;;;;;4.73;1.07;;;18.80;99.90;;;;;;4988085;28;20209;-77
2022/06/08 08:27:13;;;;;;;3.23;1.20;;;19.00;99.90;;;;;;4990007;28;20509;-76
2022/06/08 08:29:39;;;;;;;5.60;1.60;;;19.10;99.90;;;;;;4990736;28;20430;-77
2022/06/08 08:32:05;;;;;;;4.60;1.23;;;19.40;99.90;;;;;;4990890;28;20228;-77
2022/06/08 08:34:31;;;;;;;5.87;1.73;;;19.60;99.90;;;;;;4973273;28;20461;-77
2022/06/08 08:36:56;;;;;;;2.63;1.03;;;19.90;99.90;;;;;;4990810;28;20445;-77
2022/06/08 08:39:23;;;;;;;8.80;1.23;;;19.90;99.90;;;;;;4990922;28;20201;-77
2022/06/08 08:44:42;;;;;;;6.93;1.40;;;20.40;99.90;;;;;;4990907;28;20483;-76
2022/06/08 08:47:34;;;;;;;3.83;1.33;;;20.80;99.90;;;;;;5005236;28;20437;-77
2022/06/08 08:50:30;;;;;;;2.73;0.93;;;21.10;99.90;;;;;;4989238;28;20576;-77
2022/06/08 08:53:16;;;;;;;2.47;0.87;;;21.70;99.90;;;;;;4989215;28;20464;-76
2022/06/08 08:56:10;;;;;;;3.73;1.10;;;21.90;99.90;;;;;;4989318;28;20404;-76
2022/06/08 08:58:41;;;;;;;2.23;1.00;;;22.20;99.90;;;;;;4989727;28;20525;-76
2022/06/08 09:01:20;;;;;;;3.00;0.97;;;22.10;98.50;;;;;;4989171;28;20412;-76
2022/06/08 09:03:49;;;;;;;1.60;0.70;;;21.80;95.60;;;;;;4989319;28;20499;-77
2022/06/08 09:06:18;;;;;;;2.30;0.70;;;22.00;97.70;;;;;;4988982;28;20427;-77
2022/06/08 09:08:48;;;;;;;4.40;1.30;;;21.70;95.40;;;;;;4987939;28;20467;-77
2022/06/08 09:11:21;;;;;;;5.03;1.50;;;21.60;95.70;;;;;;5004235;28;20852;-77
2022/06/08 09:14:07;;;;;;;3.83;1.10;;;21.00;95.70;;;;;;4989088;28;20480;-77
2022/06/08 09:16:37;;;;;;;6.83;1.07;;;20.70;96.80;;;;;;4989132;28;20836;-76
2022/06/08 09:19:24;;;;;;;3.47;1.10;;;20.90;96.80;;;;;;5003393;28;20507;-77
2022/06/08 09:21:54;;;;;;;3.87;1.03;;;21.00;96.60;;;;;;4978407;28;20469;-76
2022/06/08 09:24:59;;;;;;;3.70;1.20;;;21.00;97.70;;;;;;4988252;28;20534;-76
2022/06/08 09:27:34;;;;;;;3.77;0.90;;;21.20;97.40;;;;;;4958342;28;20432;-76
2022/06/08 09:30:12;;;;;;;4.13;1.23;;;21.50;94.80;;;;;;4988925;28;20812;-76
2022/06/08 09:32:37;;;;;;;2.20;0.80;;;21.80;95.10;;;;;;4989002;28;20472;-75
2022/06/08 09:35:15;;;;;;;4.80;1.40;;;22.30;95.90;;;;;;4989841;28;20460;-76
2022/06/08 09:37:41;;;;;;;4.93;1.30;;;22.90;93.90;;;;;;5005370;28;20298;-76
2022/06/08 09:41:00;;;;;;;4.87;1.27;;;23.30;93.40;;;;;;4988206;28;20552;-76
2022/06/08 09:43:19;;;;;;;1.93;1.10;;;23.70;91.70;;;;;;4981835;28;20521;-76
2022/06/08 09:45:53;;;;;;;2.93;1.00;;;24.00;92.20;;;;;;4989350;28;20405;-76
2022/06/08 09:51:36;;;;;;;2.60;0.93;;;24.70;87.30;;;;;;4989278;28;20464;-76
2022/06/08 09:54:27;;;;;;;1.57;0.87;;;24.70;89.50;;;;;;4989165;28;20402;-76
2022/06/08 09:57:08;;;;;;;2.73;1.00;;;25.10;88.30;;;;;;4989156;28;20407;-77
2022/06/08 09:59:52;;;;;;;3.90;1.10;;;25.20;86.30;;;;;;4987633;28;20465;-77
2022/06/08 10:02:28;;;;;;;2.97;0.87;;;25.20;86.20;;;;;;4988966;28;20467;-76
2022/06/08 10:05:28;;;;;;;6.70;1.20;;;25.50;87.70;;;;;;4992859;28;20501;-76
2022/06/08 10:08:12;;;;;;;3.77;0.93;;;25.60;88.90;;;;;;4993472;28;20421;-76
2022/06/08 10:11:34;;;;;;;2.73;0.80;;;25.30;90.10;;;;;;4992371;28;20466;-76
2022/06/08 10:13:57;;;;;;;3.20;1.43;;;24.80;90.90;;;;;;4991781;28;20498;-76
2022/06/08 10:16:26;;;;;;;2.60;1.30;;;24.30;91.30;;;;;;4992391;28;21111;-76
2022/06/08 10:19:01;;;;;;;4.07;1.00;;;24.00;91.30;;;;;;4992144;28;20418;-76
2022/06/08 10:21:32;;;;;;;2.07;1.10;;;24.10;93.10;;;;;;4992175;28;20420;-76
2022/06/08 10:24:24;;;;;;;3.67;1.20;;;24.40;92.50;;;;;;4992300;28;20436;-76
2022/06/08 10:27:05;;;;;;;7.10;1.30;;;24.30;92.30;;;;;;4991953;28;20427;-76
2022/06/08 10:29:33;;;;;;;6.57;1.10;;;24.10;89.60;;;;;;4991260;28;20469;-75
2022/06/08 10:32:09;;;;;;;2.67;0.80;;;23.70;91.40;;;;;;4989950;28;20525;-76
2022/06/08 10:34:35;;;;;;;3.60;1.00;;;23.40;90.90;;;;;;4991241;28;20970;-76
2022/06/08 10:37:11;;;;;;;2.57;0.80;;;23.30;91.10;;;;;;4991775;28;20427;-76
2022/06/08 10:39:38;;;;;;;1.87;0.70;;;23.20;91.20;;;;;;5006543;28;20494;-76
2022/06/08 10:42:40;;;;;;;1.93;0.90;;;23.10;91.90;;;;;;4989433;28;20509;-76
2022/06/08 10:45:23;;;;;;;2.30;0.80;;;23.50;91.40;;;;;;4991799;28;20410;-76
2022/06/08 10:47:55;;;;;;;5.07;0.90;;;23.80;86.50;;;;;;4992355;28;20460;-76
2022/06/08 10:50:37;;;;;;;2.30;0.80;;;24.50;92.40;;;;;;4991469;28;20561;-76
2022/06/08 10:56:23;;;;;;;2.90;0.90;;;25.60;88.90;;;;;;4967617;28;20429;-76
2022/06/08 10:59:07;;;;;;;2.80;1.10;;;25.90;85.70;;;;;;4991141;28;20413;-75
2022/06/08 11:01:48;;;;;;;1.80;1.13;;;26.20;83.90;;;;;;4990946;28;20267;-76
2022/06/08 11:04:34;;;;;;;2.83;1.33;;;26.40;83.10;;;;;;4989917;28;20570;-75
2022/06/08 11:07:13;;;;;;;1.97;1.03;;;26.40;75.60;;;;;;4990740;28;20421;-76
2022/06/08 11:09:44;;;;;;;1.63;0.87;;;26.40;80.40;;;;;;4989405;28;20437;-76
2022/06/08 11:12:13;;;;;;;2.17;0.70;;;26.70;73.30;;;;;;4990781;28;21376;-75
2022/06/08 11:15:28;;;;;;;2.37;1.00;;;27.00;79.40;;;;;;4990637;28;20479;-75
2022/06/08 11:18:01;;;;;;;4.17;1.30;;;27.10;78.90;;;;;;4976981;28;20523;-75
2022/06/08 11:20:40;;;;;;;2.00;0.83;;;27.30;77.30;;;;;;4990626;28;20431;-75
2022/06/08 11:23:24;;;;;;;3.33;0.90;;;27.40;73.70;;;;;;4990546;28;20447;-75
2022/06/08 11:26:12;;;;;;;3.93;1.17;;;27.60;74.70;;;;;;4990361;28;20417;-75
2022/06/08 11:28:50;;;;;;;1.20;0.60;;;27.70;72.30;;;;;;4990129;28;20425;-75
2022/06/08 11:31:25;;;;;;;6.07;1.20;;;28.10;71.60;;;;;;4990158;28;20944;-75
2022/06/08 11:34:12;;;;;;;3.57;0.77;;;28.00;73.40;;;;;;4990366;28;20452;-75
2022/06/08 11:37:02;;;;;;;2.03;0.90;;;28.00;70.40;;;;;;4990362;28;20856;-74
2022/06/08 11:39:55;;;;;;;3.30;0.80;;;27.90;66.90;;;;;;4990183;28;20401;-75
2022/06/08 11:42:31;;;;;;;1.00;0.70;;;27.70;67.90;;;;;;4990043;28;20445;-75
2022/06/08 11:45:21;;;;;;;2.50;1.10;;;27.60;67.20;;;;;;5005300;28;20476;-75
2022/06/08 11:48:13;;;;;;;2.30;1.23;;;27.40;66.00;;;;;;4990254;28;20516;-75
2022/06/08 11:50:53;;;;;;;1.43;0.80;;;27.60;72.70;;;;;;4988664;28;20467;-74
2022/06/08 11:53:29;;;;;;;3.70;1.00;;;27.40;63.50;;;;;;4990152;28;20429;-75
2022/06/08 11:56:04;;;;;;;1.50;0.80;;;26.70;61.90;;;;;;4990277;28;20440;-74
2022/06/08 11:58:31;;;;;;;3.73;1.10;;;25.50;63.00;;;;;;4990312;28;20412;-74
2022/06/08 12:01:19;;;;;;;4.30;1.00;;;25.40;69.50;;;;;;4989226;28;20439;-74
2022/06/08 12:03:47;;;;;;;3.10;0.70;;;25.60;67.40;;;;;;4991797;28;20416;-75
2022/06/08 12:06:18;;;;;;;4.20;0.90;;;26.00;67.90;;;;;;4990629;28;20425;-75
2022/06/08 12:08:54;;;;;;;2.40;0.93;;;26.50;68.10;;;;;;4990311;28;20417;-75
2022/06/08 12:11:23;;;;;;;13.50;1.30;;;26.90;67.50;;;;;;5005015;28;20581;-75
2022/06/08 12:14:03;;;;;;;0.90;0.60;;;26.90;66.20;;;;;;4990151;28;20484;-74
2022/06/08 12:16:35;;;;;;;2.10;1.10;;;26.90;67.50;;;;;;4989739;28;20423;-75
2022/06/08 12:19:05;;;;;;;6.17;1.10;;;26.80;70.10;;;;;;4989775;28;20794;-75
2022/06/08 12:21:37;;;;;;;1.87;0.80;;;26.80;70.20;;;;;;4989660;28;20788;-75
2022/06/08 12:24:22;;;;;;;2.40;1.07;;;26.80;68.60;;;;;;5004526;28;20424;-76
2022/06/08 12:26:51;;;;;;;5.03;1.00;;;26.80;67.80;;;;;;5004074;28;20436;-75
2022/06/08 12:29:19;;;;;;;1.20;0.70;;;26.60;69.50;;;;;;4989324;28;20432;-75
2022/06/08 12:31:45;;;;;;;1.57;0.60;;;26.70;63.60;;;;;;4989232;28;20469;-75
2022/06/08 12:34:32;;;;;;;2.93;0.90;;;26.50;60.90;;;;;;5004169;28;20972;-76
2022/06/08 12:36:58;;;;;;;3.27;1.03;;;26.00;61.20;;;;;;4989275;28;20188;-76
2022/06/08 12:39:27;;;;;;;4.67;0.80;;;25.70;66.60;;;;;;4989230;28;20417;-75
2022/06/08 12:41:57;;;;;;;2.50;0.80;;;25.80;72.70;;;;;;4988991;28;20213;-74
2022/06/08 12:44:28;;;;;;;3.10;1.40;;;25.60;72.20;;;;;;4988921;28;20428;-75
2022/06/08 12:47:16;;;;;;;2.00;0.93;;;25.50;72.40;;;;;;4987609;28;20429;-75
2022/06/08 12:49:54;;;;;;;2.83;0.90;;;25.40;70.90;;;;;;4988921;28;20461;-75
2022/06/08 12:52:21;;;;;;;1.33;0.73;;;25.40;75.20;;;;;;4988777;28;20451;-74
2022/06/08 12:54:47;;;;;;;4.33;1.20;;;25.30;76.20;;;;;;4988765;28;20413;-75
2022/06/08 12:57:18;;;;;;;2.07;1.00;;;25.20;75.30;;;;;;4988782;28;20421;-75
2022/06/08 12:59:46;;;;;;;3.33;0.83;;;25.20;72.30;;;;;;4988742;28;20196;-75
2022/06/08 13:02:24;;;;;;;2.53;1.10;;;25.20;75.30;;;;;;4988639;28;20445;-75
2022/06/08 13:04:51;;;;;;;1.63;1.10;;;25.30;80.40;;;;;;5003262;28;20433;-75
2022/06/08 13:07:21;;;;;;;2.40;0.90;;;25.60;74.80;;;;;;4988003;28;20455;-75
2022/06/08 13:09:48;;;;;;;4.40;1.07;;;26.00;76.00;;;;;;4988287;28;20437;-75
2022/06/08 13:12:50;;;;;;;1.87;0.80;;;26.40;73.10;;;;;;4988008;28;20491;-75
2022/06/08 13:15:31;;;;;;;1.80;0.90;;;26.40;70.80;;;;;;4987903;28;20575;-76
2022/06/08 13:17:58;;;;;;;2.77;0.80;;;26.50;71.80;;;;;;5002707;28;20428;-75
2022/06/08 13:20:35;;;;;;;1.93;0.87;;;26.50;66.20;;;;;;4987846;28;20452;-75
2022/06/08 13:23:02;;;;;;;4.87;1.07;;;26.40;67.50;;;;;;4988122;28;20499;-75
2022/06/08 13:25:29;;;;;;;2.07;0.80;;;25.70;61.80;;;;;;5003387;28;20433;-75
2022/06/08 13:27:56;;;;;;;2.83;0.73;;;25.50;73.30;;;;;;4988554;28;20944;-75
2022/06/08 13:30:25;;;;;;;4.80;0.87;;;25.40;69.10;;;;;;4988621;28;20501;-75
2022/06/08 13:32:51;;;;;;;3.43;1.10;;;25.40;76.60;;;;;;4988243;28;20444;-75